Washington, DC

4:14 AM EDT on July 24, 2016 (GMT -0400)
Eckington Pl, NE | | Change Station

Elev 90 ft 38.91 °N, 77.01 °W | Updated 1 minute ago

Scattered Clouds
Scattered Clouds
84.6 °F
Feels Like 90 °F
N
2.0
Wind Variable Wind from NW
Gusts 6.0 mph

Today
High -- | Low -- °F
--% Chance of Precip.
Yesterday
High -- | Low -- °F
Precip. -- in
Pressure 29.95 in
Visibility 10.0 miles
Clouds Scattered Clouds 25000 ft
Heat Index 90 °F
Dew Point 72 °F
Humidity 66%
Rainfall Not available.
Snow Depth Not available.
6:02 AM 8:26 PM
Waning Gibbous, 78% visible
METAR KDCA 240752Z 35006KT 10SM SCT250 27/22 A2995 RMK AO2 SLP141 T02720222
Pressure 29.95 in
Visibility 10.0 miles
Clouds Scattered Clouds 25000 ft
Heat Index 90 °F
Dew Point 72 °F
Humidity 66%
Rainfall Not available.
Snow Depth Not available.
6:02 AM 8:26 PM
Waning Gibbous, 78% visible
METAR KDCA 240752Z 35006KT 10SM SCT250 27/22 A2995 RMK AO2 SLP141 T02720222

10-Day Weather Forecast

Almanac

Astronomy

Jul. 24, 2016 Rise Set
Actual Time
Civil Twilight
Nautical Twilight
Astronomical Twilight
Moon
Length of Visible Light
Length of Day
Tomorrow will be .
, % of the Moon is Illuminated

Today's Extremes

State Highs State Lows

Community

WunderPhotos

Upload Photos

1,927,041 photos uploaded!

WunderBlog® & News

Nearby

Air Quality

  Air Quality AQ Index Pollutant
Not available.

Snow Depth

Station Depth Elevation

Earthquake Activity

City Distance Mag. Time & Date
Minimum magnitude displayed is 2.5.

Coastal Water Temperatures

Place Temperature

Stations

Nearby Weather Stations

Station Location Temp. Windchill Dew Point Humidity Wind Precip. Elev Updated Type
                   

Watches & Warnings

There are currently no watches in effect.